sensor_id;sensor_type;location;lat;lon;timestamp;pressure;altitude;pressure_sealevel;temperature;humidity
4767;BME280;2397;53.576;9.746;2023-01-19T00:00:13;99698.78;;;0.37;100.00
4767;BME280;2397;53.576;9.746;2023-01-19T00:02:40;99699.53;;;0.34;100.00
4767;BME280;2397;53.576;9.746;2023-01-19T00:05:08;99697.88;;;0.34;100.00
4767;BME280;2397;53.576;9.746;2023-01-19T00:07:35;99699.69;;;0.37;100.00
4767;BME280;2397;53.576;9.746;2023-01-19T00:10:01;99710.78;;;0.39;100.00
4767;BME280;2397;53.576;9.746;2023-01-19T00:12:27;99702.28;;;0.39;100.00
4767;BME280;2397;53.576;9.746;2023-01-19T00:14:54;99700.88;;;0.47;100.00
4767;BME280;2397;53.576;9.746;2023-01-19T00:17:20;99704.13;;;0.43;100.00
4767;BME280;2397;53.576;9.746;2023-01-19T00:19:47;99698.28;;;0.45;100.00
4767;BME280;2397;53.576;9.746;2023-01-19T00:22:13;99719.44;;;0.44;100.00
4767;BME280;2397;53.576;9.746;2023-01-19T00:24:40;99688.78;;;0.41;100.00
4767;BME280;2397;53.576;9.746;2023-01-19T00:27:06;99703.19;;;0.41;100.00
4767;BME280;2397;53.576;9.746;2023-01-19T00:29:32;99698.22;;;0.44;100.00
4767;BME280;2397;53.576;9.746;2023-01-19T00:32:00;99694.00;;;0.44;100.00
4767;BME280;2397;53.576;9.746;2023-01-19T00:34:27;99693.94;;;0.43;100.00
4767;BME280;2397;53.576;9.746;2023-01-19T00:37:02;99701.69;;;0.46;100.00
4767;BME280;2397;53.576;9.746;2023-01-19T00:39:29;99696.84;;;0.52;100.00
4767;BME280;2397;53.576;9.746;2023-01-19T00:41:55;99701.03;;;0.51;100.00
4767;BME280;2397;53.576;9.746;2023-01-19T00:44:40;99708.75;;;0.53;100.00
4767;BME280;2397;53.576;9.746;2023-01-19T00:47:07;99704.38;;;0.49;100.00
4767;BME280;2397;53.576;9.746;2023-01-19T00:49:33;99713.88;;;0.55;100.00
4767;BME280;2397;53.576;9.746;2023-01-19T00:51:59;99709.63;;;0.54;100.00
4767;BME280;2397;53.576;9.746;2023-01-19T00:54:26;99714.72;;;0.54;100.00
4767;BME280;2397;53.576;9.746;2023-01-19T00:56:52;99714.84;;;0.57;100.00
4767;BME280;2397;53.576;9.746;2023-01-19T00:59:19;99708.91;;;0.58;100.00
4767;BME280;2397;53.576;9.746;2023-01-19T01:01:45;99709.78;;;0.58;100.00
4767;BME280;2397;53.576;9.746;2023-01-19T01:04:12;99712.22;;;0.55;100.00
4767;BME280;2397;53.576;9.746;2023-01-19T01:06:39;99704.75;;;0.60;100.00
4767;BME280;2397;53.576;9.746;2023-01-19T01:09:05;99712.44;;;0.61;100.00
4767;BME280;2397;53.576;9.746;2023-01-19T01:11:38;99716.81;;;0.64;100.00
4767;BME280;2397;53.576;9.746;2023-01-19T01:14:05;99716.81;;;0.64;100.00
4767;BME280;2397;53.576;9.746;2023-01-19T01:16:32;99714.25;;;0.64;100.00
4767;BME280;2397;53.576;9.746;2023-01-19T01:18:58;99723.56;;;0.63;100.00
4767;BME280;2397;53.576;9.746;2023-01-19T01:21:25;99724.44;;;0.64;100.00
4767;BME280;2397;53.576;9.746;2023-01-19T01:23:51;99717.59;;;0.63;100.00
4767;BME280;2397;53.576;9.746;2023-01-19T01:26:17;99721.06;;;0.65;100.00
4767;BME280;2397;53.576;9.746;2023-01-19T01:28:44;99719.41;;;0.65;100.00
4767;BME280;2397;53.576;9.746;2023-01-19T01:31:10;99727.09;;;0.67;100.00
4767;BME280;2397;53.576;9.746;2023-01-19T01:33:37;99730.44;;;0.66;100.00
4767;BME280;2397;53.576;9.746;2023-01-19T01:36:06;99723.66;;;0.66;100.00
4767;BME280;2397;53.576;9.746;2023-01-19T01:38:33;99719.50;;;0.68;100.00
4767;BME280;2397;53.576;9.746;2023-01-19T01:40:59;99717.81;;;0.69;100.00
4767;BME280;2397;53.576;9.746;2023-01-19T01:43:52;99724.66;;;0.70;100.00
4767;BME280;2397;53.576;9.746;2023-01-19T01:46:20;99709.38;;;0.70;100.00
4767;BME280;2397;53.576;9.746;2023-01-19T01:51:34;99702.88;;;0.78;100.00
4767;BME280;2397;53.576;9.746;2023-01-19T01:54:18;99707.06;;;0.76;100.00
4767;BME280;2397;53.576;9.746;2023-01-19T01:56:49;99702.88;;;0.78;100.00
4767;BME280;2397;53.576;9.746;2023-01-19T01:59:18;99702.69;;;0.74;100.00
4767;BME280;2397;53.576;9.746;2023-01-19T02:01:55;99709.53;;;0.75;100.00
4767;BME280;2397;53.576;9.746;2023-01-19T02:05:01;99704.44;;;0.75;100.00
4767;BME280;2397;53.576;9.746;2023-01-19T02:07:44;99695.16;;;0.77;100.00
4767;BME280;2397;53.576;9.746;2023-01-19T02:10:31;99695.13;;;0.75;100.00
4767;BME280;2397;53.576;9.746;2023-01-19T02:13:17;99701.22;;;0.79;100.00
4767;BME280;2397;53.576;9.746;2023-01-19T02:15:52;99708.25;;;0.86;100.00
4767;BME280;2397;53.576;9.746;2023-01-19T02:18:21;99708.25;;;0.86;100.00
4767;BME280;2397;53.576;9.746;2023-01-19T02:20:53;99709.22;;;0.90;100.00
4767;BME280;2397;53.576;9.746;2023-01-19T02:26:34;99698.28;;;0.92;100.00
4767;BME280;2397;53.576;9.746;2023-01-19T02:29:07;99703.28;;;0.89;100.00
4767;BME280;2397;53.576;9.746;2023-01-19T02:31:36;99698.97;;;0.88;100.00
4767;BME280;2397;53.576;9.746;2023-01-19T02:34:06;99698.06;;;0.86;100.00
4767;BME280;2397;53.576;9.746;2023-01-19T02:36:40;99703.97;;;0.85;100.00
4767;BME280;2397;53.576;9.746;2023-01-19T02:39:08;99699.78;;;0.87;100.00
4767;BME280;2397;53.576;9.746;2023-01-19T02:41:39;99702.44;;;0.90;100.00
4767;BME280;2397;53.576;9.746;2023-01-19T02:44:08;99700.78;;;0.91;100.00
4767;BME280;2397;53.576;9.746;2023-01-19T02:46:36;99701.69;;;0.93;100.00
4767;BME280;2397;53.576;9.746;2023-01-19T02:49:03;99703.28;;;0.89;100.00
4767;BME280;2397;53.576;9.746;2023-01-19T02:51:30;99702.53;;;0.93;100.00
4767;BME280;2397;53.576;9.746;2023-01-19T03:02:17;99705.34;;;0.99;100.00
4767;BME280;2397;53.576;9.746;2023-01-19T03:05:21;99688.19;;;0.95;100.00
4767;BME280;2397;53.576;9.746;2023-01-19T03:13:38;99685.75;;;0.98;100.00
4767;BME280;2397;53.576;9.746;2023-01-19T03:16:20;99689.50;;;1.08;100.00
4767;BME280;2397;53.576;9.746;2023-01-19T03:18:54;99695.25;;;1.02;100.00
4767;BME280;2397;53.576;9.746;2023-01-19T03:21:25;99698.50;;;0.98;100.00
4767;BME280;2397;53.576;9.746;2023-01-19T03:23:56;99684.06;;;0.99;100.00
4767;BME280;2397;53.576;9.746;2023-01-19T03:26:26;99688.41;;;1.01;100.00
4767;BME280;2397;53.576;9.746;2023-01-19T03:28:56;99680.66;;;0.98;100.00
4767;BME280;2397;53.576;9.746;2023-01-19T03:31:26;99695.28;;;1.04;100.00
4767;BME280;2397;53.576;9.746;2023-01-19T03:33:56;99694.47;;;1.05;100.00
4767;BME280;2397;53.576;9.746;2023-01-19T03:36:34;99696.84;;;1.00;100.00
4767;BME280;2397;53.576;9.746;2023-01-19T03:39:03;99693.59;;;1.04;100.00
4767;BME280;2397;53.576;9.746;2023-01-19T03:41:32;99697.91;;;1.05;100.00
4767;BME280;2397;53.576;9.746;2023-01-19T03:43:59;99695.19;;;1.01;100.00
4767;BME280;2397;53.576;9.746;2023-01-19T03:46:26;99698.53;;;1.00;100.00
4767;BME280;2397;53.576;9.746;2023-01-19T03:48:53;99698.53;;;1.00;100.00
4767;BME280;2397;53.576;9.746;2023-01-19T03:51:20;99700.44;;;1.05;100.00
4767;BME280;2397;53.576;9.746;2023-01-19T03:53:47;99705.66;;;1.09;100.00
4767;BME280;2397;53.576;9.746;2023-01-19T03:56:24;99695.41;;;1.07;100.00
4767;BME280;2397;53.576;9.746;2023-01-19T03:58:51;99704.84;;;1.10;100.00
4767;BME280;2397;53.576;9.746;2023-01-19T04:01:18;99687.66;;;1.04;100.00
4767;BME280;2397;53.576;9.746;2023-01-19T04:03:49;99693.44;;;1.00;100.00
4767;BME280;2397;53.576;9.746;2023-01-19T04:06:16;99693.50;;;1.01;100.00
4767;BME280;2397;53.576;9.746;2023-01-19T04:08:43;99703.69;;;1.01;100.00
4767;BME280;2397;53.576;9.746;2023-01-19T04:11:10;99687.59;;;1.02;100.00
4767;BME280;2397;53.576;9.746;2023-01-19T04:13:37;99689.25;;;1.02;100.00
4767;BME280;2397;53.576;9.746;2023-01-19T04:16:04;99693.41;;;0.98;100.00
4767;BME280;2397;53.576;9.746;2023-01-19T04:18:32;99693.56;;;1.03;100.00
4767;BME280;2397;53.576;9.746;2023-01-19T04:21:01;99680.00;;;1.04;100.00
4767;BME280;2397;53.576;9.746;2023-01-19T04:23:28;99686.88;;;1.07;100.00
4767;BME280;2397;53.576;9.746;2023-01-19T04:26:00;99691.16;;;1.08;100.00
4767;BME280;2397;53.576;9.746;2023-01-19T04:28:28;99694.47;;;1.05;100.00
4767;BME280;2397;53.576;9.746;2023-01-19T04:30:55;99694.41;;;1.03;100.00
4767;BME280;2397;53.576;9.746;2023-01-19T04:33:21;99701.16;;;1.01;100.00
4767;BME280;2397;53.576;9.746;2023-01-19T04:35:49;99691.88;;;1.03;100.00
4767;BME280;2397;53.576;9.746;2023-01-19T04:38:19;99695.25;;;1.02;100.00
4767;BME280;2397;53.576;9.746;2023-01-19T04:40:47;99700.28;;;1.01;100.00
4767;BME280;2397;53.576;9.746;2023-01-19T04:43:14;99703.69;;;1.01;100.00
4767;BME280;2397;53.576;9.746;2023-01-19T04:45:40;99709.69;;;1.03;100.00
4767;BME280;2397;53.576;9.746;2023-01-19T04:48:06;99700.44;;;1.05;100.00
4767;BME280;2397;53.576;9.746;2023-01-19T04:50:33;99708.78;;;1.01;100.00
4767;BME280;2397;53.576;9.746;2023-01-19T04:52:59;99705.38;;;1.01;100.00
4767;BME280;2397;53.576;9.746;2023-01-19T04:55:26;99711.28;;;1.00;100.00
4767;BME280;2397;53.576;9.746;2023-01-19T04:57:52;99721.47;;;1.00;100.00
4767;BME280;2397;53.576;9.746;2023-01-19T05:00:19;99717.34;;;1.03;100.00
4767;BME280;2397;53.576;9.746;2023-01-19T05:02:46;99721.69;;;1.06;100.00
4767;BME280;2397;53.576;9.746;2023-01-19T05:05:12;99719.16;;;1.06;100.00
4767;BME280;2397;53.576;9.746;2023-01-19T05:07:39;99725.94;;;1.05;100.00
4767;BME280;2397;53.576;9.746;2023-01-19T05:10:06;99726.84;;;1.08;100.00
4767;BME280;2397;53.576;9.746;2023-01-19T05:12:32;99728.31;;;1.01;100.00
4767;BME280;2397;53.576;9.746;2023-01-19T05:14:59;99719.91;;;1.03;100.00
4767;BME280;2397;53.576;9.746;2023-01-19T05:17:26;99729.41;;;1.08;100.00
4767;BME280;2397;53.576;9.746;2023-01-19T05:19:53;99725.94;;;1.05;100.00
4767;BME280;2397;53.576;9.746;2023-01-19T05:22:20;99725.25;;;1.10;100.00
4767;BME280;2397;53.576;9.746;2023-01-19T05:24:46;99733.84;;;1.13;100.00
4767;BME280;2397;53.576;9.746;2023-01-19T05:27:12;99734.59;;;1.11;100.00
4767;BME280;2397;53.576;9.746;2023-01-19T05:29:39;99731.13;;;1.09;100.00
4767;BME280;2397;53.576;9.746;2023-01-19T05:32:05;99730.28;;;1.08;100.00
4767;BME280;2397;53.576;9.746;2023-01-19T05:34:32;99734.59;;;1.11;100.00
4767;BME280;2397;53.576;9.746;2023-01-19T05:36:58;99736.34;;;1.12;100.00
4767;BME280;2397;53.576;9.746;2023-01-19T05:39:24;99734.59;;;1.11;100.00
4767;BME280;2397;53.576;9.746;2023-01-19T05:41:52;99739.78;;;1.14;100.00
4767;BME280;2397;53.576;9.746;2023-01-19T05:44:18;99739.78;;;1.14;100.00
4767;BME280;2397;53.576;9.746;2023-01-19T05:46:44;99745.84;;;1.16;100.00
4767;BME280;2397;53.576;9.746;2023-01-19T05:49:11;99741.53;;;1.15;100.00
4767;BME280;2397;53.576;9.746;2023-01-19T05:51:38;99741.53;;;1.15;100.00
4767;BME280;2397;53.576;9.746;2023-01-19T05:54:06;99744.94;;;1.15;100.00
4767;BME280;2397;53.576;9.746;2023-01-19T05:56:33;99730.38;;;1.11;100.00
4767;BME280;2397;53.576;9.746;2023-01-19T05:59:01;99732.00;;;1.09;100.00
4767;BME280;2397;53.576;9.746;2023-01-19T06:01:27;99738.84;;;1.10;100.00
4767;BME280;2397;53.576;9.746;2023-01-19T06:03:53;99738.09;;;1.13;100.00
4767;BME280;2397;53.576;9.746;2023-01-19T06:06:20;99737.19;;;1.12;100.00
4767;BME280;2397;53.576;9.746;2023-01-19T06:08:46;99731.25;;;1.12;100.00
4767;BME280;2397;53.576;9.746;2023-01-19T06:11:13;99734.53;;;1.09;100.00
4767;BME280;2397;53.576;9.746;2023-01-19T06:13:39;99742.88;;;1.05;100.00
4767;BME280;2397;53.576;9.746;2023-01-19T06:16:07;99738.50;;;1.01;100.00
4767;BME280;2397;53.576;9.746;2023-01-19T06:18:34;99741.88;;;1.00;100.00
4767;BME280;2397;53.576;9.746;2023-01-19T06:21:04;99747.22;;;1.08;100.00
4767;BME280;2397;53.576;9.746;2023-01-19T06:23:32;99755.56;;;1.03;100.00
4767;BME280;2397;53.576;9.746;2023-01-19T06:26:00;99758.13;;;1.03;100.00
4767;BME280;2397;53.576;9.746;2023-01-19T06:28:26;99757.31;;;1.04;100.00
4767;BME280;2397;53.576;9.746;2023-01-19T06:30:54;99758.97;;;1.02;100.00
4767;BME280;2397;53.576;9.746;2023-01-19T06:33:22;99764.81;;;1.00;100.00
4767;BME280;2397;53.576;9.746;2023-01-19T06:35:50;99758.91;;;1.01;100.00
4767;BME280;2397;53.576;9.746;2023-01-19T06:38:17;99775.97;;;1.03;100.00
4767;BME280;2397;53.576;9.746;2023-01-19T06:40:45;99776.69;;;0.99;100.00
4767;BME280;2397;53.576;9.746;2023-01-19T06:43:16;99776.69;;;0.99;100.00
4767;BME280;2397;53.576;9.746;2023-01-19T06:45:46;99780.91;;;0.99;100.00
4767;BME280;2397;53.576;9.746;2023-01-19T06:48:12;99789.53;;;1.02;100.00
4767;BME280;2397;53.576;9.746;2023-01-19T06:50:38;99791.97;;;0.99;100.00
4767;BME280;2397;53.576;9.746;2023-01-19T06:53:06;99797.78;;;0.95;100.00
4767;BME280;2397;53.576;9.746;2023-01-19T06:55:32;99808.97;;;1.00;100.00
4767;BME280;2397;53.576;9.746;2023-01-19T06:58:01;99809.09;;;1.03;100.00
4767;BME280;2397;53.576;9.746;2023-01-19T07:00:27;99798.69;;;0.97;100.00
4767;BME280;2397;53.576;9.746;2023-01-19T07:02:54;99818.22;;;0.97;100.00
4767;BME280;2397;53.576;9.746;2023-01-19T07:05:21;99820.06;;;1.01;100.00
4767;BME280;2397;53.576;9.746;2023-01-19T07:07:52;99841.25;;;1.00;100.00
4767;BME280;2397;53.576;9.746;2023-01-19T07:10:19;99826.81;;;1.00;100.00
4767;BME280;2397;53.576;9.746;2023-01-19T07:12:46;99832.81;;;1.01;100.00
4767;BME280;2397;53.576;9.746;2023-01-19T07:15:14;99847.31;;;1.03;100.00
4767;BME280;2397;53.576;9.746;2023-01-19T07:17:42;99842.13;;;1.00;100.00
4767;BME280;2397;53.576;9.746;2023-01-19T07:20:09;99837.00;;;1.00;100.00
4767;BME280;2397;53.576;9.746;2023-01-19T07:22:42;99842.94;;;0.99;100.00
4767;BME280;2397;53.576;9.746;2023-01-19T07:25:12;99839.44;;;0.97;100.00
4767;BME280;2397;53.576;9.746;2023-01-19T07:27:38;99841.38;;;1.03;100.00
4767;BME280;2397;53.576;9.746;2023-01-19T07:30:06;99858.25;;;0.99;100.00
4767;BME280;2397;53.576;9.746;2023-01-19T07:32:33;99853.94;;;0.98;100.00
4767;BME280;2397;53.576;9.746;2023-01-19T07:35:00;99859.84;;;0.97;100.00
4767;BME280;2397;53.576;9.746;2023-01-19T07:37:27;99864.06;;;0.97;100.00
4767;BME280;2397;53.576;9.746;2023-01-19T07:39:54;99872.59;;;0.97;100.00
4767;BME280;2397;53.576;9.746;2023-01-19T07:42:20;99870.91;;;0.98;100.00
4767;BME280;2397;53.576;9.746;2023-01-19T07:44:46;99871.78;;;0.98;100.00
4767;BME280;2397;53.576;9.746;2023-01-19T07:47:13;99875.25;;;1.00;100.00
4767;BME280;2397;53.576;9.746;2023-01-19T07:49:39;99877.91;;;1.03;100.00
4767;BME280;2397;53.576;9.746;2023-01-19T07:52:06;99881.41;;;1.05;100.00
4767;BME280;2397;53.576;9.746;2023-01-19T07:54:32;99876.47;;;1.10;100.00
4767;BME280;2397;53.576;9.746;2023-01-19T07:56:59;99877.00;;;1.01;100.00
4767;BME280;2397;53.576;9.746;2023-01-19T07:59:28;99873.63;;;1.02;100.00
4767;BME280;2397;53.576;9.746;2023-01-19T08:01:57;99882.19;;;1.04;100.00
4767;BME280;2397;53.576;9.746;2023-01-19T08:04:25;99884.59;;;1.00;100.00
4767;BME280;2397;53.576;9.746;2023-01-19T08:06:52;99887.19;;;1.01;100.00
4767;BME280;2397;53.576;9.746;2023-01-19T08:09:19;99894.09;;;1.04;100.00
4767;BME280;2397;53.576;9.746;2023-01-19T08:11:45;99896.75;;;1.07;100.00
4767;BME280;2397;53.576;9.746;2023-01-19T08:14:12;99903.50;;;1.07;100.00
4767;BME280;2397;53.576;9.746;2023-01-19T08:16:38;99901.97;;;1.10;100.00
4767;BME280;2397;53.576;9.746;2023-01-19T08:19:05;99904.56;;;1.12;100.00
4767;BME280;2397;53.576;9.746;2023-01-19T08:21:31;99912.28;;;1.13;100.00
4767;BME280;2397;53.576;9.746;2023-01-19T08:23:58;99905.53;;;1.15;100.00
4767;BME280;2397;53.576;9.746;2023-01-19T08:26:32;99915.00;;;1.18;100.00
4767;BME280;2397;53.576;9.746;2023-01-19T08:29:01;99918.41;;;1.18;100.00
4767;BME280;2397;53.576;9.746;2023-01-19T08:31:28;99916.97;;;1.25;100.00
4767;BME280;2397;53.576;9.746;2023-01-19T08:33:55;99929.53;;;1.20;100.00
4767;BME280;2397;53.576;9.746;2023-01-19T08:36:22;99915.09;;;1.21;100.00
4767;BME280;2397;53.576;9.746;2023-01-19T08:38:50;99926.13;;;1.20;100.00
4767;BME280;2397;53.576;9.746;2023-01-19T08:41:16;99922.63;;;1.18;100.00
4767;BME280;2397;53.576;9.746;2023-01-19T08:43:43;99924.44;;;1.20;100.00
4767;BME280;2397;53.576;9.746;2023-01-19T08:46:11;99922.91;;;1.26;100.00
4767;BME280;2397;53.576;9.746;2023-01-19T08:48:37;99930.50;;;1.24;100.00
4767;BME280;2397;53.576;9.746;2023-01-19T08:51:05;99930.50;;;1.24;100.00
4767;BME280;2397;53.576;9.746;2023-01-19T08:53:31;99944.22;;;1.26;100.00
4767;BME280;2397;53.576;9.746;2023-01-19T08:55:58;99940.59;;;1.21;100.00
4767;BME280;2397;53.576;9.746;2023-01-19T08:58:27;99939.97;;;1.27;100.00
4767;BME280;2397;53.576;9.746;2023-01-19T09:00:54;99945.81;;;1.24;100.00
4767;BME280;2397;53.576;9.746;2023-01-19T09:03:21;99942.56;;;1.28;100.00
4767;BME280;2397;53.576;9.746;2023-01-19T09:05:50;99953.56;;;1.27;100.00
4767;BME280;2397;53.576;9.746;2023-01-19T09:08:16;99951.84;;;1.26;100.00
4767;BME280;2397;53.576;9.746;2023-01-19T09:10:48;99957.81;;;1.27;100.00
4767;BME280;2397;53.576;9.746;2023-01-19T09:13:15;99958.00;;;1.31;100.00
4767;BME280;2397;53.576;9.746;2023-01-19T09:15:42;99952.03;;;1.31;100.00
4767;BME280;2397;53.576;9.746;2023-01-19T09:18:14;99957.25;;;1.34;100.00
4767;BME280;2397;53.576;9.746;2023-01-19T09:20:45;99953.00;;;1.34;100.00
4767;BME280;2397;53.576;9.746;2023-01-19T09:23:14;99968.31;;;1.34;100.00
4767;BME280;2397;53.576;9.746;2023-01-19T09:25:42;99970.00;;;1.34;100.00
4767;BME280;2397;53.576;9.746;2023-01-19T09:28:11;99971.78;;;1.36;100.00
4767;BME280;2397;53.576;9.746;2023-01-19T09:30:39;99982.78;;;1.35;100.00
4767;BME280;2397;53.576;9.746;2023-01-19T09:33:10;99972.72;;;1.38;100.00
4767;BME280;2397;53.576;9.746;2023-01-19T09:35:38;99975.31;;;1.40;100.00
4767;BME280;2397;53.576;9.746;2023-01-19T09:38:05;99973.75;;;1.44;100.00
4767;BME280;2397;53.576;9.746;2023-01-19T09:40:36;99989.19;;;1.47;100.00
4767;BME280;2397;53.576;9.746;2023-01-19T09:43:13;99989.31;;;1.50;100.00
4767;BME280;2397;53.576;9.746;2023-01-19T09:45:47;100000.25;;;1.47;100.00
4767;BME280;2397;53.576;9.746;2023-01-19T09:48:38;99997.69;;;1.47;100.00
4767;BME280;2397;53.576;9.746;2023-01-19T09:51:12;99999.50;;;1.50;100.00
4767;BME280;2397;53.576;9.746;2023-01-19T09:56:26;99995.03;;;1.44;100.00
4767;BME280;2397;53.576;9.746;2023-01-19T09:58:56;100007.97;;;1.49;100.00
4767;BME280;2397;53.576;9.746;2023-01-19T10:01:51;100011.38;;;1.49;100.00
4767;BME280;2397;53.576;9.746;2023-01-19T10:04:28;100009.88;;;1.54;100.00
4767;BME280;2397;53.576;9.746;2023-01-19T10:07:20;100012.53;;;1.57;100.00
4767;BME280;2397;53.576;9.746;2023-01-19T10:15:29;100018.63;;;1.61;100.00
4767;BME280;2397;53.576;9.746;2023-01-19T10:18:19;100015.31;;;1.64;100.00
4767;BME280;2397;53.576;9.746;2023-01-19T10:20:55;100017.00;;;1.63;100.00
4767;BME280;2397;53.576;9.746;2023-01-19T10:23:36;100017.75;;;1.61;100.00
4767;BME280;2397;53.576;9.746;2023-01-19T10:26:21;100028.66;;;1.56;100.00
4767;BME280;2397;53.576;9.746;2023-01-19T10:28:51;100030.09;;;1.50;100.00
4767;BME280;2397;53.576;9.746;2023-01-19T10:31:22;100031.81;;;1.51;100.00
4767;BME280;2397;53.576;9.746;2023-01-19T10:33:49;100038.69;;;1.52;100.00
4767;BME280;2397;53.576;9.746;2023-01-19T10:36:25;100039.47;;;1.51;100.00
4767;BME280;2397;53.576;9.746;2023-01-19T10:38:53;100038.00;;;1.56;100.00
4767;BME280;2397;53.576;9.746;2023-01-19T10:41:27;100040.53;;;1.56;100.00
4767;BME280;2397;53.576;9.746;2023-01-19T10:44:01;100030.56;;;1.62;100.00
4767;BME280;2397;53.576;9.746;2023-01-19T10:46:33;100041.69;;;1.64;100.00
4767;BME280;2397;53.576;9.746;2023-01-19T10:49:02;100038.41;;;1.67;100.00
4767;BME280;2397;53.576;9.746;2023-01-19T10:51:29;100053.81;;;1.70;100.00
4767;BME280;2397;53.576;9.746;2023-01-19T10:53:58;100049.59;;;1.70;100.00
4767;BME280;2397;53.576;9.746;2023-01-19T10:56:30;100053.75;;;1.68;100.00
4767;BME280;2397;53.576;9.746;2023-01-19T10:58:59;100057.94;;;1.66;100.00
4767;BME280;2397;53.576;9.746;2023-01-19T11:01:27;100047.69;;;1.65;100.00
4767;BME280;2397;53.576;9.746;2023-01-19T11:03:56;100049.59;;;1.70;100.00
4767;BME280;2397;53.576;9.746;2023-01-19T11:06:31;100048.88;;;1.74;100.00
4767;BME280;2397;53.576;9.746;2023-01-19T11:09:16;100051.25;;;1.70;100.00
4767;BME280;2397;53.576;9.746;2023-01-19T11:11:46;100045.41;;;1.72;100.00
4767;BME280;2397;53.576;9.746;2023-01-19T11:14:17;100052.28;;;1.73;100.00
4767;BME280;2397;53.576;9.746;2023-01-19T11:16:46;100054.94;;;1.77;100.00
4767;BME280;2397;53.576;9.746;2023-01-19T11:19:19;100055.63;;;1.72;100.00
4767;BME280;2397;53.576;9.746;2023-01-19T11:21:47;100053.97;;;1.74;100.00
4767;BME280;2397;53.576;9.746;2023-01-19T11:24:14;100056.53;;;1.74;100.00
4767;BME280;2397;53.576;9.746;2023-01-19T11:26:47;100053.25;;;1.77;100.00
4767;BME280;2397;53.576;9.746;2023-01-19T11:29:21;100057.53;;;1.78;100.00
4767;BME280;2397;53.576;9.746;2023-01-19T11:31:49;100055.63;;;1.72;100.00
4767;BME280;2397;53.576;9.746;2023-01-19T11:34:42;100068.09;;;1.65;100.00
4767;BME280;2397;53.576;9.746;2023-01-19T11:39:49;100062.41;;;1.72;100.00
4767;BME280;2397;53.576;9.746;2023-01-19T11:42:17;100065.59;;;1.66;100.00
4767;BME280;2397;53.576;9.746;2023-01-19T11:47:26;100069.06;;;1.68;100.00
4767;BME280;2397;53.576;9.746;2023-01-19T11:50:06;100070.81;;;1.69;100.00
4767;BME280;2397;53.576;9.746;2023-01-19T11:53:00;100078.59;;;1.72;100.00
4767;BME280;2397;53.576;9.746;2023-01-19T11:55:35;100076.16;;;1.75;100.00
4767;BME280;2397;53.576;9.746;2023-01-19T11:58:05;100071.78;;;1.73;100.00
4767;BME280;2397;53.576;9.746;2023-01-19T12:00:42;100066.84;;;1.78;100.00
4767;BME280;2397;53.576;9.746;2023-01-19T12:03:20;100069.19;;;1.71;100.00
4767;BME280;2397;53.576;9.746;2023-01-19T12:05:51;100071.00;;;1.74;100.00
4767;BME280;2397;53.576;9.746;2023-01-19T12:08:53;100086.25;;;1.72;100.00
4767;BME280;2397;53.576;9.746;2023-01-19T12:11:28;100079.50;;;1.74;100.00
4767;BME280;2397;53.576;9.746;2023-01-19T12:13:57;100080.44;;;1.77;100.00
4767;BME280;2397;53.576;9.746;2023-01-19T12:16:28;100072.84;;;1.78;100.00
4767;BME280;2397;53.576;9.746;2023-01-19T12:19:02;100084.03;;;1.82;100.00
4767;BME280;2397;53.576;9.746;2023-01-19T12:21:30;100073.81;;;1.82;100.00
4767;BME280;2397;53.576;9.746;2023-01-19T12:24:15;100078.81;;;1.79;100.00
4767;BME280;2397;53.576;9.746;2023-01-19T12:26:54;100090.88;;;1.83;100.00
4767;BME280;2397;53.576;9.746;2023-01-19T12:29:24;100085.78;;;1.83;100.00
4767;BME280;2397;53.576;9.746;2023-01-19T12:34:43;100097.84;;;1.87;100.00
4767;BME280;2397;53.576;9.746;2023-01-19T12:37:36;100096.00;;;1.83;100.00
4767;BME280;2397;53.576;9.746;2023-01-19T12:40:17;100092.03;;;1.91;100.00
4767;BME280;2397;53.576;9.746;2023-01-19T12:43:02;100092.97;;;1.93;100.00
4767;BME280;2397;53.576;9.746;2023-01-19T12:45:35;100090.72;;;2.01;100.00
4767;BME280;2397;53.576;9.746;2023-01-19T12:48:03;100094.84;;;1.97;100.00
4767;BME280;2397;53.576;9.746;2023-01-19T12:50:35;100099.84;;;1.94;100.00
4767;BME280;2397;53.576;9.746;2023-01-19T12:53:05;100105.06;;;1.97;100.00
4767;BME280;2397;53.576;9.746;2023-01-19T12:55:40;100099.91;;;1.96;100.00
4767;BME280;2397;53.576;9.746;2023-01-19T12:58:16;100098.31;;;1.99;100.00
4767;BME280;2397;53.576;9.746;2023-01-19T13:00:48;100100.06;;;2.00;100.00
4767;BME280;2397;53.576;9.746;2023-01-19T13:13:36;100104.69;;;2.10;100.00
4767;BME280;2397;53.576;9.746;2023-01-19T13:18:59;100104.22;;;2.21;100.00
4767;BME280;2397;53.576;9.746;2023-01-19T13:21:33;100114.44;;;2.21;100.00
4767;BME280;2397;53.576;9.746;2023-01-19T13:26:38;100109.41;;;2.22;100.00
4767;BME280;2397;53.576;9.746;2023-01-19T13:29:13;100116.16;;;2.22;100.00
4767;BME280;2397;53.576;9.746;2023-01-19T13:31:42;100116.41;;;2.28;100.00
4767;BME280;2397;53.576;9.746;2023-01-19T13:34:16;100126.97;;;2.37;100.00
4767;BME280;2397;53.576;9.746;2023-01-19T13:36:45;100117.94;;;2.47;100.00
4767;BME280;2397;53.576;9.746;2023-01-19T13:39:18;100123.34;;;2.55;100.00
4767;BME280;2397;53.576;9.746;2023-01-19T13:41:48;100131.13;;;2.58;100.00
4767;BME280;2397;53.576;9.746;2023-01-19T13:44:22;100131.13;;;2.58;100.00
4767;BME280;2397;53.576;9.746;2023-01-19T13:46:51;100130.28;;;2.59;100.00
4767;BME280;2397;53.576;9.746;2023-01-19T13:52:11;100136.22;;;2.58;100.00
4767;BME280;2397;53.576;9.746;2023-01-19T13:54:52;100137.13;;;2.60;100.00
4767;BME280;2397;53.576;9.746;2023-01-19T14:02:51;100146.72;;;2.66;100.00
4767;BME280;2397;53.576;9.746;2023-01-19T14:05:38;100150.00;;;2.63;100.00
4767;BME280;2397;53.576;9.746;2023-01-19T14:10:41;100160.94;;;2.59;100.00
4767;BME280;2397;53.576;9.746;2023-01-19T14:13:21;100167.75;;;2.58;100.00
4767;BME280;2397;53.576;9.746;2023-01-19T14:15:49;100172.06;;;2.59;100.00
4767;BME280;2397;53.576;9.746;2023-01-19T14:21:08;100166.25;;;2.63;100.00
4767;BME280;2397;53.576;9.746;2023-01-19T14:23:45;100173.72;;;2.59;100.00
4767;BME280;2397;53.576;9.746;2023-01-19T14:34:49;100190.22;;;2.67;100.00
4767;BME280;2397;53.576;9.746;2023-01-19T14:37:28;100195.44;;;2.70;100.00
4767;BME280;2397;53.576;9.746;2023-01-19T14:42:42;100204.00;;;2.72;100.00
4767;BME280;2397;53.576;9.746;2023-01-19T14:47:45;100210.94;;;2.75;100.00
4767;BME280;2397;53.576;9.746;2023-01-19T14:50:25;100217.56;;;2.70;100.00
4767;BME280;2397;53.576;9.746;2023-01-19T14:53:19;100212.28;;;2.65;100.00
4767;BME280;2397;53.576;9.746;2023-01-19T14:55:57;100219.81;;;2.62;100.00